createdAt,value
2017-03-22T00:00:39.910Z,992.25
2017-03-22T00:01:50.273Z,992.23
2017-03-22T00:03:00.322Z,992.26
2017-03-22T00:04:10.375Z,992.27
2017-03-22T00:05:20.727Z,992.25
2017-03-22T00:06:31.116Z,992.23
2017-03-22T00:07:41.480Z,992.23
2017-03-22T00:08:51.525Z,992.23
2017-03-22T00:10:01.545Z,992.25
2017-03-22T00:11:11.940Z,992.28
2017-03-22T00:12:22.284Z,992.31
2017-03-22T00:13:32.026Z,992.31
2017-03-22T00:14:42.367Z,992.3
2017-03-22T00:15:52.412Z,992.32
2017-03-22T00:17:02.787Z,992.32
2017-03-22T00:18:13.134Z,992.31
2017-03-22T00:19:23.475Z,992.31
2017-03-22T00:20:33.199Z,992.28
2017-03-22T00:21:43.241Z,992.24
2017-03-22T00:22:53.588Z,992.2
2017-03-22T00:24:03.931Z,992.22
2017-03-22T00:25:13.664Z,992.24
2017-03-22T00:26:23.695Z,992.23
2017-03-22T00:27:34.041Z,992.2
2017-03-22T00:28:44.395Z,992.2
2017-03-22T00:29:54.744Z,992.24
2017-03-22T00:31:04.781Z,992.23
2017-03-22T00:32:14.514Z,992.22
2017-03-22T00:33:24.858Z,992.22
2017-03-22T00:34:35.214Z,992.23
2017-03-22T00:35:45.550Z,992.21
2017-03-22T00:36:55.916Z,992.17
2017-03-22T00:38:05.943Z,992.17
2017-03-22T00:39:15.668Z,992.24
2017-03-22T00:40:25.742Z,992.27
2017-03-22T00:41:36.085Z,992.26
2017-03-22T00:42:46.435Z,992.24
2017-03-22T00:43:56.473Z,992.28
2017-03-22T00:45:06.813Z,992.25
2017-03-22T00:46:17.159Z,992.23
2017-03-22T00:47:27.506Z,992.24
2017-03-22T00:48:37.529Z,992.23
2017-03-22T00:49:47.878Z,992.19
2017-03-22T00:50:58.241Z,992.2
2017-03-22T00:52:08.598Z,992.19
2017-03-22T00:53:18.944Z,992.2
2017-03-22T00:54:29.291Z,992.18
2017-03-22T00:55:39.023Z,992.21
2017-03-22T00:56:49.048Z,992.19
2017-03-22T00:57:58.763Z,992.22
2017-03-22T00:59:09.106Z,992.22
2017-03-22T01:00:19.459Z,992.2
2017-03-22T01:01:29.825Z,992.19
2017-03-22T01:02:40.152Z,992.17
2017-03-22T01:03:50.501Z,992.17
2017-03-22T01:05:00.848Z,992.21
2017-03-22T01:06:11.192Z,992.19
2017-03-22T01:07:21.221Z,992.12
2017-03-22T01:08:31.265Z,992.18
2017-03-22T01:09:41.637Z,992.13
2017-03-22T01:10:51.979Z,992.17
2017-03-22T01:12:02.006Z,992.14
2017-03-22T01:13:12.354Z,992.16
2017-03-22T01:14:22.717Z,992.18
2017-03-22T01:15:32.450Z,992.14
2017-03-22T01:16:42.798Z,992.11
2017-03-22T01:17:52.867Z,992.16
2017-03-22T01:19:03.216Z,992.18
2017-03-22T01:20:12.928Z,992.13
2017-03-22T01:21:23.277Z,992.17
2017-03-22T01:22:33.611Z,992.13
2017-03-22T01:23:43.957Z,992.13
2017-03-22T01:24:54.300Z,992.1
2017-03-22T01:26:04.653Z,992.11
2017-03-22T01:27:14.697Z,992.1
2017-03-22T01:28:25.040Z,992.14
2017-03-22T01:29:35.103Z,992.16
2017-03-22T01:30:45.138Z,992.12
2017-03-22T01:31:55.485Z,992.09
2017-03-22T01:33:05.820Z,992.1
2017-03-22T01:34:15.878Z,992.06
2017-03-22T01:35:26.227Z,992.07
2017-03-22T01:36:36.568Z,992.09
2017-03-22T01:37:46.904Z,992.11
2017-03-22T01:38:57.261Z,992.09
2017-03-22T01:40:07.637Z,992.1
2017-03-22T01:41:17.667Z,992.12
2017-03-22T01:42:27.676Z,992.13
2017-03-22T01:43:37.697Z,992.11
2017-03-22T01:44:47.747Z,992.1
2017-03-22T01:45:57.769Z,992.07
2017-03-22T01:47:08.106Z,992.12
2017-03-22T01:48:18.536Z,992.08
2017-03-22T01:49:28.253Z,992.1
2017-03-22T01:50:38.296Z,992.09
2017-03-22T01:51:48.335Z,992.11
2017-03-22T01:52:58.372Z,992.11
2017-03-22T01:54:08.404Z,992.13
2017-03-22T01:55:18.770Z,992.12
2017-03-22T01:56:28.492Z,992.15
2017-03-22T01:57:38.512Z,992.11
2017-03-22T01:58:48.554Z,992.15
2017-03-22T01:59:58.957Z,992.14
2017-03-22T02:01:09.292Z,992.21
2017-03-22T02:02:19.317Z,992.22
2017-03-22T02:03:29.662Z,992.22
2017-03-22T02:04:40.000Z,992.24
2017-03-22T02:05:50.035Z,992.27
2017-03-22T02:07:00.062Z,992.24
2017-03-22T02:08:10.416Z,992.25
2017-03-22T02:09:20.805Z,992.27
2017-03-22T02:10:31.147Z,992.3
2017-03-22T02:11:41.493Z,992.27
2017-03-22T02:12:51.838Z,992.31
2017-03-22T02:14:01.879Z,992.29
2017-03-22T02:15:12.229Z,992.25
2017-03-22T02:16:22.574Z,992.25
2017-03-22T02:17:32.898Z,992.29
2017-03-22T02:18:42.941Z,992.31
2017-03-22T02:19:53.281Z,992.29
2017-03-22T02:21:03.636Z,992.31
2017-03-22T02:22:13.975Z,992.34
2017-03-22T02:23:24.337Z,992.36
2017-03-22T02:24:34.663Z,992.37
2017-03-22T02:25:45.014Z,992.31
2017-03-22T02:26:55.352Z,992.32
2017-03-22T02:28:05.373Z,992.37
2017-03-22T02:29:15.729Z,992.34
2017-03-22T02:30:26.078Z,992.31
2017-03-22T02:31:35.489Z,992.32
2017-03-22T02:32:45.821Z,992.31
2017-03-22T02:33:56.164Z,992.3
2017-03-22T02:35:06.527Z,992.27
2017-03-22T02:36:16.557Z,992.28
2017-03-22T02:37:26.910Z,992.3
2017-03-22T02:38:37.279Z,992.32
2017-03-22T02:39:47.638Z,992.32
2017-03-22T02:40:57.668Z,992.35
2017-03-22T02:42:07.693Z,992.36
2017-03-22T02:43:18.035Z,992.35
2017-03-22T02:44:27.760Z,992.35
2017-03-22T02:45:38.084Z,992.33
2017-03-22T02:46:48.435Z,992.39
2017-03-22T02:47:58.462Z,992.35
2017-03-22T02:49:08.798Z,992.37
2017-03-22T02:50:19.147Z,992.39
2017-03-22T02:51:29.500Z,992.37
2017-03-22T02:52:39.833Z,992.38
2017-03-22T02:53:50.188Z,992.41
2017-03-22T02:55:00.538Z,992.42
2017-03-22T02:56:10.562Z,992.38
2017-03-22T02:57:20.580Z,992.41
2017-03-22T02:58:30.912Z,992.41
2017-03-22T02:59:41.264Z,992.38
2017-03-22T03:00:51.603Z,992.42
2017-03-22T03:32:09.202Z,992.58
2017-03-22T03:33:19.544Z,992.52
2017-03-22T03:34:29.879Z,992.56
2017-03-22T03:35:40.223Z,992.51
2017-03-22T03:36:50.557Z,992.57
2017-03-22T03:38:00.887Z,992.57
2017-03-22T03:39:10.912Z,992.57
2017-03-22T03:40:20.930Z,992.55
2017-03-22T03:41:31.276Z,992.56
2017-03-22T03:42:41.303Z,992.56
2017-03-22T03:43:51.320Z,992.57
2017-03-22T03:45:01.664Z,992.58
2017-03-22T03:46:12.032Z,992.57
2017-03-22T03:47:22.361Z,992.61
2017-03-22T03:48:32.750Z,992.65
2017-03-22T03:49:43.148Z,992.64
2017-03-22T03:50:53.204Z,992.62
2017-03-22T03:52:03.566Z,992.57
2017-03-22T03:53:13.599Z,992.63
2017-03-22T03:54:23.945Z,992.62
2017-03-22T03:55:34.292Z,992.62
2017-03-22T03:56:44.657Z,992.65
2017-03-22T03:57:55.009Z,992.69
2017-03-22T03:59:05.049Z,992.7
2017-03-22T04:00:15.091Z,992.68
2017-03-22T04:01:25.122Z,992.69
2017-03-22T04:02:35.484Z,992.64
2017-03-22T04:03:45.838Z,992.68
2017-03-22T04:04:55.859Z,992.65
2017-03-22T04:06:06.215Z,992.67
2017-03-22T04:07:16.598Z,992.67
2017-03-22T04:08:26.948Z,992.63
2017-03-22T04:09:37.306Z,992.64
2017-03-22T04:10:47.649Z,992.65
2017-03-22T04:11:57.984Z,992.7
2017-03-22T04:13:08.013Z,992.69
2017-03-22T04:14:17.736Z,992.69
2017-03-22T04:15:27.778Z,992.66
2017-03-22T04:16:38.131Z,992.69
2017-03-22T04:17:48.460Z,992.73
2017-03-22T04:18:58.506Z,992.71
2017-03-22T04:20:08.837Z,992.75
2017-03-22T04:21:19.169Z,992.7
2017-03-22T04:22:29.204Z,992.73
2017-03-22T04:23:39.551Z,992.72
2017-03-22T04:24:49.889Z,992.69
2017-03-22T04:25:59.977Z,992.72
2017-03-22T04:27:10.324Z,992.72
2017-03-22T04:28:20.359Z,992.72
2017-03-22T04:29:30.704Z,992.67
2017-03-22T04:30:41.047Z,992.69
2017-03-22T04:31:51.391Z,992.72
2017-03-22T04:33:01.740Z,992.73
2017-03-22T04:34:12.082Z,992.75
2017-03-22T04:35:22.425Z,992.78
2017-03-22T04:36:32.749Z,992.81
2017-03-22T04:37:43.091Z,992.84
2017-03-22T04:38:53.437Z,992.87
2017-03-22T04:40:03.775Z,992.91
2017-03-22T04:41:14.112Z,992.88
2017-03-22T04:42:24.461Z,992.88
2017-03-22T04:43:34.791Z,992.85
2017-03-22T04:44:45.118Z,992.88
2017-03-22T04:45:55.451Z,992.84
2017-03-22T04:47:05.799Z,992.88
2017-03-22T04:48:16.151Z,992.87
2017-03-22T04:49:26.491Z,992.84
2017-03-22T04:50:36.836Z,992.84
2017-03-22T04:51:46.875Z,992.9
2017-03-22T04:52:57.215Z,992.9
2017-03-22T04:54:07.252Z,992.86
2017-03-22T04:55:17.618Z,992.85
2017-03-22T04:56:27.953Z,992.83
2017-03-22T04:57:38.276Z,992.83
2017-03-22T04:58:48.616Z,992.88
2017-03-22T04:59:58.967Z,992.87
2017-03-22T05:01:09.319Z,992.9
2017-03-22T05:02:19.342Z,992.9
2017-03-22T05:03:29.358Z,992.94
2017-03-22T05:04:39.711Z,992.94
2017-03-22T05:05:50.054Z,992.96
2017-03-22T05:07:00.394Z,992.94
2017-03-22T05:08:10.734Z,992.94
2017-03-22T05:09:21.075Z,992.91
2017-03-22T05:10:30.790Z,992.93
2017-03-22T05:11:41.143Z,992.96
2017-03-22T05:12:51.490Z,992.93
2017-03-22T05:14:01.854Z,992.92
2017-03-22T05:15:11.573Z,992.96
2017-03-22T05:16:21.611Z,992.96
2017-03-22T05:17:31.957Z,993.01
2017-03-22T05:18:42.300Z,993.01
2017-03-22T05:19:52.645Z,992.99
2017-03-22T05:21:02.678Z,992.97
2017-03-22T05:22:12.704Z,993.01
2017-03-22T05:23:22.745Z,993
2017-03-22T05:24:33.101Z,993.04
2017-03-22T05:25:43.441Z,993.01
2017-03-22T05:26:53.786Z,993.03
2017-03-22T05:28:04.130Z,993.05
2017-03-22T05:29:14.490Z,993.07
2017-03-22T05:30:24.524Z,993.05
2017-03-22T05:31:34.555Z,993.11
2017-03-22T05:32:44.263Z,993.11
2017-03-22T05:33:54.608Z,993.07
2017-03-22T05:35:04.994Z,993.09
2017-03-22T05:36:15.023Z,993.09
2017-03-22T05:37:25.042Z,993.1
2017-03-22T05:38:35.382Z,993.12
2017-03-22T05:39:45.724Z,993.09
2017-03-22T05:40:56.071Z,993.14
2017-03-22T05:42:06.404Z,993.11
2017-03-22T05:43:16.442Z,993.14
2017-03-22T05:44:26.799Z,993.18
2017-03-22T05:45:37.132Z,993.16
2017-03-22T05:46:47.466Z,993.21
2017-03-22T05:47:57.808Z,993.24
2017-03-22T05:49:08.144Z,993.22
2017-03-22T05:50:18.502Z,993.23
2017-03-22T05:51:28.550Z,993.22
2017-03-22T05:52:38.583Z,993.21
2017-03-22T05:53:48.620Z,993.22
2017-03-22T05:54:58.967Z,993.23
2017-03-22T05:56:09.331Z,993.25
2017-03-22T05:57:19.658Z,993.22
2017-03-22T05:58:29.992Z,993.18
2017-03-22T05:59:40.345Z,993.22
2017-03-22T06:00:50.375Z,993.25
2017-03-22T06:02:00.724Z,993.22
2017-03-22T06:03:11.084Z,993.27
2017-03-22T06:04:21.431Z,993.26
2017-03-22T06:05:31.777Z,993.29
2017-03-22T06:06:41.798Z,993.29
2017-03-22T06:07:52.136Z,993.3
2017-03-22T06:09:02.496Z,993.3
2017-03-22T06:10:12.851Z,993.32
2017-03-22T06:11:23.185Z,993.34
2017-03-22T06:12:33.503Z,993.35
2017-03-22T06:13:43.881Z,993.36
2017-03-22T06:14:53.904Z,993.34
2017-03-22T06:16:04.243Z,993.31
2017-03-22T06:17:13.631Z,993.32
2017-03-22T06:18:23.976Z,993.31
2017-03-22T06:19:34.307Z,993.31
2017-03-22T06:20:44.646Z,993.26
2017-03-22T06:21:54.972Z,993.3
2017-03-22T06:23:05.322Z,993.3
2017-03-22T06:24:15.365Z,993.31
2017-03-22T06:25:25.392Z,993.37
2017-03-22T06:26:35.736Z,993.34
2017-03-22T06:27:46.076Z,993.36
2017-03-22T06:28:56.413Z,993.4
2017-03-22T06:30:06.769Z,993.39
2017-03-22T06:31:16.810Z,993.39
2017-03-22T06:32:27.152Z,993.44
2017-03-22T06:33:37.488Z,993.4
2017-03-22T06:34:47.839Z,993.4
2017-03-22T06:35:57.881Z,993.42
2017-03-22T06:37:07.906Z,993.44
2017-03-22T06:38:17.930Z,993.44
2017-03-22T06:39:28.267Z,993.42
2017-03-22T06:40:37.974Z,993.45
2017-03-22T06:41:48.303Z,993.45
2017-03-22T06:42:58.336Z,993.4
2017-03-22T06:44:08.685Z,993.45
2017-03-22T06:45:18.733Z,993.42
2017-03-22T06:46:29.077Z,993.47
2017-03-22T06:47:39.104Z,993.46
2017-03-22T06:48:49.452Z,993.43
2017-03-22T06:49:59.486Z,993.43
2017-03-22T06:51:09.838Z,993.34
2017-03-22T06:52:20.170Z,993.46
2017-03-22T06:53:30.208Z,993.43
2017-03-22T06:54:40.553Z,993.38
2017-03-22T06:55:50.581Z,993.37
2017-03-22T06:57:00.945Z,993.36
2017-03-22T06:58:11.293Z,993.35
2017-03-22T06:59:21.661Z,993.38
2017-03-22T07:00:32.024Z,993.4
2017-03-22T07:01:42.378Z,993.41
2017-03-22T07:02:52.450Z,993.39
2017-03-22T07:04:02.485Z,993.49
2017-03-22T07:05:12.842Z,993.41
2017-03-22T07:06:22.865Z,993.47
2017-03-22T07:07:33.197Z,993.5
2017-03-22T07:08:43.544Z,993.49
2017-03-22T07:09:53.889Z,993.49
2017-03-22T07:11:04.241Z,993.48
2017-03-22T07:12:14.264Z,993.51
2017-03-22T07:13:24.608Z,993.46
2017-03-22T07:14:34.630Z,993.49
2017-03-22T07:15:44.658Z,993.45
2017-03-22T07:16:54.999Z,993.5
2017-03-22T07:18:05.343Z,993.47
2017-03-22T07:19:15.375Z,993.49
2017-03-22T07:20:25.409Z,993.54
2017-03-22T07:21:35.748Z,993.46
2017-03-22T07:22:45.458Z,993.49
2017-03-22T07:23:55.812Z,993.45
2017-03-22T07:25:06.142Z,993.46
2017-03-22T07:26:16.491Z,993.45
2017-03-22T07:27:26.831Z,993.45
2017-03-22T07:28:37.157Z,993.47
2017-03-22T07:29:47.190Z,993.5
2017-03-22T07:30:57.602Z,993.55
2017-03-22T07:32:07.958Z,993.5
2017-03-22T07:33:18.312Z,993.5
2017-03-22T07:34:28.366Z,993.54
2017-03-22T07:35:38.723Z,993.57
2017-03-22T07:36:49.089Z,993.55
2017-03-22T07:37:58.822Z,993.57
2017-03-22T07:39:09.201Z,993.55
2017-03-22T07:40:19.614Z,993.57
2017-03-22T07:41:29.966Z,993.6
2017-03-22T07:42:40.312Z,993.66
2017-03-22T07:43:50.694Z,993.65
2017-03-22T07:45:01.067Z,993.67
2017-03-22T07:46:11.115Z,993.7
2017-03-22T07:47:21.456Z,993.69
2017-03-22T07:48:31.802Z,993.72
2017-03-22T07:49:41.863Z,993.77
2017-03-22T07:50:52.207Z,993.83
2017-03-22T07:52:02.531Z,993.73
2017-03-22T07:53:12.895Z,993.78
2017-03-22T07:54:22.916Z,993.81
2017-03-22T07:55:32.636Z,993.87
2017-03-22T07:56:42.990Z,993.82
2017-03-22T07:57:53.012Z,993.86
2017-03-22T07:59:03.351Z,993.87
2017-03-22T08:00:13.719Z,993.91
2017-03-22T08:01:23.789Z,993.91
2017-03-22T08:02:34.154Z,993.89
2017-03-22T08:03:44.512Z,993.98
2017-03-22T08:04:54.840Z,994.03
2017-03-22T08:06:04.556Z,994.07
2017-03-22T08:07:14.899Z,994.08
2017-03-22T08:08:25.246Z,994.1
2017-03-22T08:09:35.617Z,994.07
2017-03-22T08:10:45.953Z,994.12
2017-03-22T08:11:56.296Z,994.09
2017-03-22T08:13:06.664Z,994.11
2017-03-22T08:14:17.007Z,994.12
2017-03-22T08:15:27.369Z,994.08
2017-03-22T08:16:37.407Z,994.12
2017-03-22T08:17:47.756Z,994.11
2017-03-22T08:18:58.135Z,994.12
2017-03-22T08:20:08.173Z,994.09
2017-03-22T08:21:17.897Z,994.09
2017-03-22T08:22:28.253Z,994.16
2017-03-22T08:23:38.297Z,994.15
2017-03-22T08:24:48.671Z,994.17
2017-03-22T08:25:58.712Z,994.18
2017-03-22T08:27:09.073Z,994.2
2017-03-22T08:28:19.111Z,994.26
2017-03-22T08:29:29.463Z,994.22
2017-03-22T08:30:39.794Z,994.24
2017-03-22T08:31:49.836Z,994.25
2017-03-22T08:32:59.876Z,994.27
2017-03-22T08:34:10.205Z,994.32
2017-03-22T08:35:20.230Z,994.31
2017-03-22T08:36:29.946Z,994.28
2017-03-22T08:37:40.282Z,994.38
2017-03-22T08:38:50.641Z,994.39
2017-03-22T08:40:00.673Z,994.37
2017-03-22T08:41:10.706Z,994.4
2017-03-22T08:42:21.064Z,994.42
2017-03-22T08:43:31.431Z,994.42
2017-03-22T08:44:41.789Z,994.48
2017-03-22T08:45:51.218Z,994.4
2017-03-22T08:47:01.566Z,994.42
2017-03-22T08:48:11.914Z,994.46
2017-03-22T08:49:21.320Z,994.45
2017-03-22T08:50:31.353Z,994.46
2017-03-22T08:51:41.694Z,994.47
2017-03-22T08:52:51.724Z,994.45
2017-03-22T08:54:02.077Z,994.53
2017-03-22T08:55:12.423Z,994.5
2017-03-22T08:56:22.777Z,994.54
2017-03-22T08:57:32.502Z,994.5
2017-03-22T08:58:42.849Z,994.56
2017-03-22T08:59:53.193Z,994.6
2017-03-22T09:01:03.547Z,994.59
2017-03-22T09:02:13.904Z,994.58
2017-03-22T09:03:24.265Z,994.61
2017-03-22T09:04:34.632Z,994.62
2017-03-22T09:05:45.000Z,994.64
2017-03-22T09:06:55.347Z,994.68
2017-03-22T09:08:05.695Z,994.72
2017-03-22T09:09:15.402Z,994.7
2017-03-22T09:10:25.758Z,994.73
2017-03-22T09:11:36.107Z,994.78
2017-03-22T09:12:46.444Z,994.76
2017-03-22T09:13:56.782Z,994.8
2017-03-22T09:15:07.122Z,994.91
2017-03-22T09:16:17.445Z,994.97
2017-03-22T09:17:27.844Z,994.95
2017-03-22T09:18:37.871Z,994.97
2017-03-22T09:19:47.920Z,995.02
2017-03-22T09:20:58.261Z,995.04
2017-03-22T09:22:08.615Z,995.03
2017-03-22T09:23:18.967Z,995.03
2017-03-22T09:24:29.317Z,995.05
2017-03-22T09:25:39.675Z,995.01
2017-03-22T09:26:50.047Z,995.07
2017-03-22T09:28:00.391Z,995.11
2017-03-22T09:29:10.776Z,995.08
2017-03-22T09:30:21.128Z,995.12
2017-03-22T09:31:31.182Z,995.13
2017-03-22T09:32:41.211Z,995.14
2017-03-22T09:33:51.255Z,995.1
2017-03-22T09:35:01.283Z,995.08
2017-03-22T09:36:11.341Z,995.06
2017-03-22T09:37:21.691Z,995.16
2017-03-22T09:38:31.436Z,995.17
2017-03-22T09:39:41.785Z,995.12
2017-03-22T09:40:51.825Z,995.16
2017-03-22T09:42:01.847Z,995.19
2017-03-22T09:43:11.866Z,995.21
2017-03-22T09:44:22.213Z,995.2
2017-03-22T09:45:32.243Z,995.18
2017-03-22T09:46:42.627Z,995.19
2017-03-22T09:47:52.993Z,995.24
2017-03-22T09:49:03.351Z,995.26
2017-03-22T09:50:13.386Z,995.27
2017-03-22T09:51:23.716Z,995.28
2017-03-22T09:52:34.059Z,995.29
2017-03-22T09:53:44.650Z,995.3
2017-03-22T09:54:54.679Z,995.3
2017-03-22T09:56:05.021Z,995.32
2017-03-22T09:57:15.078Z,995.32
2017-03-22T09:58:25.417Z,995.33
2017-03-22T09:59:35.439Z,995.33
2017-03-22T10:00:45.807Z,995.37
2017-03-22T10:01:56.142Z,995.36
2017-03-22T10:03:06.485Z,995.39
2017-03-22T10:04:16.836Z,995.42
2017-03-22T10:05:26.864Z,995.45
2017-03-22T10:06:36.909Z,995.49
2017-03-22T10:07:46.942Z,995.5
2017-03-22T10:08:57.297Z,995.53
2017-03-22T10:10:07.019Z,995.55
2017-03-22T10:11:17.357Z,995.53
2017-03-22T10:12:27.729Z,995.54
2017-03-22T10:13:38.070Z,995.49
2017-03-22T10:14:48.077Z,995.52
2017-03-22T10:15:58.128Z,995.45
2017-03-22T10:17:08.155Z,995.42
2017-03-22T10:18:18.487Z,995.42
2017-03-22T10:19:28.526Z,995.41
2017-03-22T10:20:38.884Z,995.42
2017-03-22T10:21:49.220Z,995.48
2017-03-22T10:22:59.553Z,995.51
2017-03-22T10:24:09.618Z,995.54
2017-03-22T10:25:20.067Z,995.54
2017-03-22T10:26:30.409Z,995.5
2017-03-22T10:27:40.807Z,995.55
2017-03-22T10:28:51.145Z,995.52
2017-03-22T10:30:01.501Z,995.5
2017-03-22T10:31:11.854Z,995.53
2017-03-22T10:32:22.205Z,995.52
2017-03-22T10:33:32.221Z,995.51
2017-03-22T10:34:42.251Z,995.55
2017-03-22T10:35:52.577Z,995.57
2017-03-22T10:37:02.909Z,995.63
2017-03-22T10:38:12.929Z,995.64
2017-03-22T10:39:22.641Z,995.62
2017-03-22T10:40:32.660Z,995.65
2017-03-22T10:41:42.700Z,995.65
2017-03-22T10:42:52.730Z,995.66
2017-03-22T10:44:03.076Z,995.65
2017-03-22T10:45:13.402Z,995.66
2017-03-22T10:46:23.432Z,995.66
2017-03-22T10:47:33.780Z,995.67
2017-03-22T10:48:43.806Z,995.66
2017-03-22T10:49:54.131Z,995.66
2017-03-22T10:51:04.455Z,995.68
2017-03-22T10:52:14.491Z,995.77
2017-03-22T10:53:24.818Z,995.73
2017-03-22T10:54:35.160Z,995.79
2017-03-22T10:55:45.177Z,995.8
2017-03-22T10:56:55.533Z,995.8
2017-03-22T10:58:05.574Z,995.82
2017-03-22T10:59:15.908Z,995.78
2017-03-22T11:00:26.228Z,995.87
2017-03-22T11:01:36.579Z,995.83
2017-03-22T11:02:46.605Z,995.89
2017-03-22T11:03:56.980Z,995.93
2017-03-22T11:05:07.013Z,995.94
2017-03-22T11:06:17.388Z,995.96
2017-03-22T11:07:27.730Z,995.98
2017-03-22T11:08:38.061Z,995.99
2017-03-22T11:09:48.418Z,995.96
2017-03-22T11:10:58.449Z,995.99
2017-03-22T11:12:08.779Z,996.01
2017-03-22T11:13:19.125Z,996.01
2017-03-22T11:14:29.141Z,996.01
2017-03-22T11:15:39.482Z,996.03
2017-03-22T11:16:49.847Z,996.05
2017-03-22T11:18:00.436Z,996.05
2017-03-22T11:19:10.451Z,996.1
2017-03-22T11:20:20.483Z,996.06
2017-03-22T11:21:30.516Z,996.11
2017-03-22T11:22:40.879Z,996.14
2017-03-22T11:23:51.236Z,996.11
2017-03-22T11:25:00.958Z,996.11
2017-03-22T11:26:10.998Z,996.2
2017-03-22T11:27:21.343Z,996.12
2017-03-22T11:28:31.682Z,996.11
2017-03-22T11:29:42.010Z,996.16
2017-03-22T11:30:52.050Z,996.17
2017-03-22T11:32:02.065Z,996.17
2017-03-22T11:33:11.757Z,996.07
2017-03-22T11:34:21.817Z,996.05
2017-03-22T11:35:32.173Z,996.15
2017-03-22T11:36:42.203Z,996.16
2017-03-22T11:37:52.239Z,996.16
2017-03-22T11:39:01.635Z,996.13
2017-03-22T11:40:11.956Z,996.19
2017-03-22T11:41:21.996Z,996.14
2017-03-22T11:42:32.031Z,996.24
2017-03-22T11:43:42.362Z,996.21
2017-03-22T11:44:52.721Z,996.26
2017-03-22T11:46:02.754Z,996.26
2017-03-22T11:47:13.103Z,996.3
2017-03-22T11:48:23.143Z,996.28
2017-03-22T11:49:33.170Z,996.39
2017-03-22T11:50:43.507Z,996.42
2017-03-22T11:51:53.232Z,996.45
2017-03-22T11:53:03.580Z,996.43
2017-03-22T11:54:13.926Z,996.44
2017-03-22T11:55:24.288Z,996.38
2017-03-22T11:56:34.622Z,996.38
2017-03-22T11:57:44.986Z,996.4
2017-03-22T11:58:55.334Z,996.43
2017-03-22T12:00:05.676Z,996.45
2017-03-22T12:01:16.027Z,996.45
2017-03-22T12:02:26.375Z,996.43
2017-03-22T12:03:36.401Z,996.45
2017-03-22T12:04:46.733Z,996.47
2017-03-22T12:05:57.095Z,996.44
2017-03-22T12:07:07.426Z,996.44
2017-03-22T12:08:17.437Z,996.48
2017-03-22T12:09:27.771Z,996.52
2017-03-22T12:10:37.906Z,996.44
2017-03-22T12:11:48.248Z,996.49
2017-03-22T12:12:58.583Z,996.46
2017-03-22T12:14:08.917Z,996.5
2017-03-22T12:15:19.247Z,996.55
2017-03-22T12:16:28.959Z,996.51
2017-03-22T12:17:39.287Z,996.53
2017-03-22T12:18:49.357Z,996.49
2017-03-22T12:19:59.784Z,996.53
2017-03-22T12:21:10.148Z,996.46
2017-03-22T12:22:20.479Z,996.53
2017-03-22T12:23:30.505Z,996.48
2017-03-22T12:24:40.529Z,996.45
2017-03-22T12:25:50.868Z,996.49
2017-03-22T12:27:00.629Z,996.44
2017-03-22T12:28:10.973Z,996.42
2017-03-22T12:29:21.301Z,996.46
2017-03-22T12:30:31.660Z,996.34
2017-03-22T12:31:41.991Z,996.33
2017-03-22T12:32:52.035Z,996.29
2017-03-22T12:34:02.365Z,996.34
2017-03-22T12:35:12.702Z,996.3
2017-03-22T12:36:23.049Z,996.33
2017-03-22T12:37:33.077Z,996.31
2017-03-22T12:38:43.426Z,996.27
2017-03-22T12:39:53.790Z,996.3
2017-03-22T12:41:03.884Z,996.31
2017-03-22T12:42:14.222Z,996.29
2017-03-22T12:43:24.569Z,996.35
2017-03-22T12:44:34.906Z,996.36
2017-03-22T12:45:45.257Z,996.36
2017-03-22T12:46:55.606Z,996.4
2017-03-22T12:48:05.634Z,996.4
2017-03-22T12:49:15.978Z,996.45
2017-03-22T12:50:26.314Z,996.47
2017-03-22T12:51:36.322Z,996.56
2017-03-22T12:52:46.674Z,996.47
2017-03-22T12:53:57.016Z,996.59
2017-03-22T12:55:07.361Z,996.59
2017-03-22T12:56:17.702Z,996.62
2017-03-22T12:57:28.046Z,996.6
2017-03-22T12:58:38.066Z,996.66
2017-03-22T12:59:47.534Z,996.62
2017-03-22T13:00:57.871Z,996.64
2017-03-22T13:02:08.220Z,996.58
2017-03-22T13:03:18.592Z,996.61
2017-03-22T13:04:28.939Z,996.63
2017-03-22T13:05:39.277Z,996.6
2017-03-22T13:06:49.331Z,996.58
2017-03-22T13:07:59.360Z,996.61
2017-03-22T13:09:09.396Z,996.66
2017-03-22T13:10:19.423Z,996.68
2017-03-22T13:11:29.792Z,996.64
2017-03-22T13:12:39.556Z,996.67
2017-03-22T13:13:49.908Z,996.68
2017-03-22T13:14:59.944Z,996.7
2017-03-22T13:16:10.303Z,996.73
2017-03-22T13:17:20.352Z,996.68
2017-03-22T13:18:30.376Z,996.71
2017-03-22T13:19:40.724Z,996.73
2017-03-22T13:20:50.742Z,996.75
2017-03-22T13:22:00.815Z,996.77
2017-03-22T13:23:11.169Z,996.76
2017-03-22T13:24:21.209Z,996.76
2017-03-22T13:25:31.269Z,996.8
2017-03-22T13:26:41.603Z,996.82
2017-03-22T13:27:51.322Z,996.9
2017-03-22T13:29:01.349Z,996.88
2017-03-22T13:30:11.689Z,996.85
2017-03-22T13:31:22.040Z,996.84
2017-03-22T13:32:32.395Z,996.84
2017-03-22T13:33:42.754Z,996.92
2017-03-22T13:34:53.089Z,996.89
2017-03-22T13:36:03.425Z,996.88
2017-03-22T13:37:13.839Z,996.9
2017-03-22T13:38:24.193Z,996.89
2017-03-22T13:39:33.902Z,996.85
2017-03-22T13:40:44.266Z,996.85
2017-03-22T13:41:54.607Z,996.84
2017-03-22T13:43:04.953Z,996.92
2017-03-22T13:44:14.661Z,996.92
2017-03-22T13:45:25.011Z,996.93
2017-03-22T13:46:35.399Z,996.93
2017-03-22T13:47:45.771Z,996.88
2017-03-22T13:48:56.106Z,996.83
2017-03-22T13:50:06.147Z,996.89
2017-03-22T13:51:16.166Z,996.86
2017-03-22T13:52:26.514Z,996.87
2017-03-22T13:53:36.868Z,996.89
2017-03-22T13:54:47.225Z,996.84
2017-03-22T13:55:57.554Z,996.87
2017-03-22T13:57:07.897Z,996.87
2017-03-22T13:58:17.927Z,996.92
2017-03-22T13:59:28.301Z,996.94
2017-03-22T14:00:38.900Z,996.93
2017-03-22T14:01:49.241Z,996.95
2017-03-22T14:02:59.629Z,996.91
2017-03-22T14:04:09.346Z,996.92
2017-03-22T14:05:19.378Z,996.85
2017-03-22T14:06:29.413Z,996.89
2017-03-22T14:07:39.451Z,996.96
2017-03-22T14:08:49.480Z,996.88
2017-03-22T14:09:59.513Z,996.98
2017-03-22T14:11:09.534Z,996.97
2017-03-22T14:12:19.264Z,997.04
2017-03-22T14:13:28.994Z,997.02
2017-03-22T14:14:39.338Z,996.97
2017-03-22T14:15:49.059Z,997.01
2017-03-22T14:16:59.404Z,997.05
2017-03-22T14:18:09.745Z,997
2017-03-22T14:19:19.782Z,997.04
2017-03-22T14:20:29.817Z,997.08
2017-03-22T14:21:40.168Z,997.1
2017-03-22T14:22:50.537Z,997.07
2017-03-22T14:24:00.582Z,997.11
2017-03-22T14:25:10.629Z,997.04
2017-03-22T14:26:20.355Z,997.07
2017-03-22T14:27:30.381Z,997.08
2017-03-22T14:28:40.413Z,997.14
2017-03-22T14:29:50.454Z,997.12
2017-03-22T14:31:00.530Z,997.09
2017-03-22T14:32:10.879Z,997.14
2017-03-22T14:33:21.233Z,997.14
2017-03-22T14:34:31.571Z,997.15
2017-03-22T14:35:41.918Z,997.14
2017-03-22T14:36:52.252Z,997.16
2017-03-22T14:38:02.276Z,997.11
2017-03-22T14:39:12.652Z,997.14
2017-03-22T14:40:22.060Z,997.13
2017-03-22T14:41:32.116Z,997.15
2017-03-22T14:42:42.444Z,997.12
2017-03-22T14:43:52.816Z,997.1
2017-03-22T14:45:03.167Z,997.15
2017-03-22T14:46:13.193Z,997.11
2017-03-22T14:47:23.540Z,997.15
2017-03-22T14:48:33.565Z,997.17
2017-03-22T14:49:43.594Z,997.17
2017-03-22T14:50:53.994Z,997.12
2017-03-22T14:52:04.334Z,997.18
2017-03-22T14:53:14.671Z,997.14
2017-03-22T14:54:25.013Z,997.11
2017-03-22T14:55:35.379Z,997.13
2017-03-22T14:56:45.733Z,997.1
2017-03-22T14:57:56.096Z,997.13
2017-03-22T14:59:06.433Z,997.06
2017-03-22T15:00:16.769Z,997.06
2017-03-22T15:01:27.119Z,997.09
2017-03-22T15:02:37.217Z,997.08
2017-03-22T15:03:47.579Z,997.09
2017-03-22T15:04:57.932Z,997.12
2017-03-22T15:06:07.957Z,997.09
2017-03-22T15:07:18.315Z,997.13
2017-03-22T15:08:28.756Z,997.17
2017-03-22T15:09:38.802Z,997.15